createdAt,value
2018-01-30T00:00:29.048Z,74.70
2018-01-30T00:02:56.557Z,74.10
2018-01-30T00:05:24.828Z,74.20
2018-01-30T00:07:53.126Z,74.20
2018-01-30T00:10:21.554Z,74.20
2018-01-30T00:12:49.264Z,74.40
2018-01-30T00:15:17.599Z,74.80
2018-01-30T00:17:45.124Z,74.80
2018-01-30T00:20:12.596Z,75.60
2018-01-30T00:22:40.143Z,75.20
2018-01-30T00:25:08.411Z,74.90
2018-01-30T00:27:35.938Z,74.90
2018-01-30T00:30:03.426Z,74.20
2018-01-30T00:32:31.003Z,74.60
2018-01-30T00:34:59.266Z,74.70
2018-01-30T00:37:28.286Z,74.60
2018-01-30T00:39:56.565Z,74.50
2018-01-30T00:42:24.841Z,74.10
2018-01-30T00:44:52.444Z,74.10
2018-01-30T00:47:19.972Z,74.10
2018-01-30T00:49:48.964Z,74.90
2018-01-30T00:52:17.237Z,74.80
2018-01-30T00:54:44.718Z,75.40
2018-01-30T00:57:12.242Z,74.90
2018-01-30T00:59:39.743Z,74.70
2018-01-30T01:02:08.053Z,74.30
2018-01-30T01:04:35.538Z,74.20
2018-01-30T01:07:03.024Z,73.80
2018-01-30T01:09:30.560Z,74.20
2018-01-30T01:11:58.070Z,74.20
2018-01-30T01:14:26.356Z,73.40
2018-01-30T01:16:54.638Z,72.50
2018-01-30T01:19:22.892Z,72.30
2018-01-30T01:21:50.406Z,72.20
2018-01-30T01:24:17.912Z,72.90
2018-01-30T01:26:45.429Z,72.40
2018-01-30T01:29:12.936Z,72.00
2018-01-30T01:31:40.435Z,71.50
2018-01-30T01:34:08.776Z,71.50
2018-01-30T01:36:36.288Z,71.50
2018-01-30T01:39:04.553Z,71.30
2018-01-30T01:41:32.814Z,71.50
2018-01-30T01:44:00.300Z,71.40
2018-01-30T01:46:28.773Z,71.20
2018-01-30T01:48:56.313Z,71.20
2018-01-30T01:51:23.808Z,71.70
2018-01-30T01:53:51.319Z,71.00
2018-01-30T01:56:18.825Z,71.20
2018-01-30T01:58:46.434Z,71.40
2018-01-30T02:01:14.025Z,71.30
2018-01-30T02:03:41.528Z,71.30
2018-01-30T02:06:09.800Z,72.00
2018-01-30T02:08:37.295Z,72.00
2018-01-30T02:11:04.801Z,71.30
2018-01-30T02:13:32.293Z,71.00
2018-01-30T02:16:00.489Z,70.30
2018-01-30T02:18:28.753Z,70.50
2018-01-30T02:20:57.010Z,70.90
2018-01-30T02:23:24.511Z,70.90
2018-01-30T02:25:52.754Z,71.20
2018-01-30T02:28:20.264Z,71.10
2018-01-30T02:30:47.750Z,71.00
2018-01-30T02:33:15.280Z,71.10
2018-01-30T02:35:43.527Z,72.30
2018-01-30T02:38:11.037Z,72.20
2018-01-30T02:40:38.537Z,72.20
2018-01-30T02:43:06.065Z,72.40
2018-01-30T02:45:33.659Z,73.60
2018-01-30T02:48:01.735Z,73.60
2018-01-30T02:50:29.256Z,73.60
2018-01-30T02:52:57.562Z,73.70
2018-01-30T02:55:25.051Z,73.70
2018-01-30T02:57:52.547Z,74.20
2018-01-30T03:00:24.518Z,75.20
2018-01-30T03:02:52.787Z,75.90
2018-01-30T03:05:20.292Z,75.20
2018-01-30T03:07:47.794Z,74.90
2018-01-30T03:10:15.297Z,74.90
2018-01-30T03:12:43.535Z,74.30
2018-01-30T03:15:11.144Z,74.30
2018-01-30T03:17:38.653Z,74.60
2018-01-30T03:20:06.186Z,74.00
2018-01-30T03:22:33.667Z,73.30
2018-01-30T03:25:01.293Z,72.90
2018-01-30T03:27:29.544Z,72.50
2018-01-30T03:29:57.084Z,72.50
2018-01-30T03:32:24.565Z,72.70
2018-01-30T03:34:52.071Z,72.50
2018-01-30T03:37:20.915Z,73.30
2018-01-30T03:39:48.416Z,73.30
2018-01-30T03:42:16.673Z,71.80
2018-01-30T03:44:44.194Z,71.80
2018-01-30T03:47:11.690Z,71.90
2018-01-30T03:49:39.216Z,71.60
2018-01-30T03:52:06.773Z,72.20
2018-01-30T03:54:34.282Z,72.90
2018-01-30T03:57:01.791Z,70.90
2018-01-30T03:59:30.072Z,69.50
2018-01-30T04:01:58.346Z,70.00
2018-01-30T04:04:26.645Z,69.00
2018-01-30T04:06:54.176Z,69.60
2018-01-30T04:09:22.451Z,69.40
2018-01-30T04:11:49.974Z,68.60
2018-01-30T04:14:17.494Z,68.90
2018-01-30T04:16:45.749Z,69.00
2018-01-30T04:19:13.233Z,68.90
2018-01-30T04:21:42.037Z,68.60
2018-01-30T04:24:10.300Z,69.10
2018-01-30T04:26:38.568Z,70.80
2018-01-30T04:29:06.079Z,70.40
2018-01-30T04:31:33.589Z,70.50
2018-01-30T04:34:01.113Z,70.30
2018-01-30T04:36:28.607Z,70.60
2018-01-30T04:38:56.103Z,70.30
2018-01-30T04:41:24.370Z,70.60
2018-01-30T04:43:52.639Z,70.00
2018-01-30T04:46:20.136Z,70.00
2018-01-30T04:48:48.388Z,70.20
2018-01-30T04:51:15.908Z,70.20
2018-01-30T04:53:43.408Z,70.20
2018-01-30T04:56:10.918Z,70.90
2018-01-30T04:58:38.413Z,70.30
2018-01-30T05:01:05.914Z,70.50
2018-01-30T05:03:33.406Z,70.70
2018-01-30T05:06:00.922Z,71.20
2018-01-30T05:08:28.404Z,71.20
2018-01-30T05:10:56.690Z,71.20
2018-01-30T05:13:24.933Z,71.80
2018-01-30T05:15:52.433Z,71.70
2018-01-30T05:18:20.688Z,72.30
2018-01-30T05:20:48.176Z,72.30
2018-01-30T05:23:16.446Z,72.90
2018-01-30T05:25:43.957Z,72.70
2018-01-30T05:28:11.488Z,72.50
2018-01-30T05:30:39.758Z,72.20
2018-01-30T05:33:08.005Z,71.90
2018-01-30T05:35:35.504Z,71.90
2018-01-30T05:38:03.016Z,72.60
2018-01-30T05:40:30.504Z,71.30
2018-01-30T05:42:58.038Z,70.80
2018-01-30T05:45:25.543Z,70.20
2018-01-30T05:47:53.054Z,70.10
2018-01-30T05:50:20.583Z,69.80
2018-01-30T05:52:49.095Z,69.90
2018-01-30T05:55:16.783Z,69.90
2018-01-30T05:57:45.341Z,69.60
2018-01-30T06:00:13.602Z,68.90
2018-01-30T06:02:41.100Z,68.80
2018-01-30T06:05:08.619Z,69.20
2018-01-30T06:07:36.119Z,68.90
2018-01-30T06:10:03.619Z,69.10
2018-01-30T06:12:31.132Z,69.30
2018-01-30T06:14:59.408Z,69.50
2018-01-30T06:17:27.690Z,69.30
2018-01-30T06:19:55.948Z,69.30
2018-01-30T06:22:24.304Z,69.10
2018-01-30T06:24:52.729Z,69.10
2018-01-30T06:27:20.989Z,68.80
2018-01-30T06:29:49.258Z,68.60
2018-01-30T06:32:17.547Z,68.50
2018-01-30T06:34:45.079Z,68.20
2018-01-30T06:37:12.596Z,68.20
2018-01-30T06:39:40.876Z,68.80
2018-01-30T06:42:09.120Z,69.10
2018-01-30T06:44:36.616Z,68.60
2018-01-30T06:47:04.957Z,69.50
2018-01-30T06:49:33.444Z,69.00
2018-01-30T06:52:00.967Z,69.20
2018-01-30T06:54:29.272Z,69.00
2018-01-30T06:56:56.780Z,69.00
2018-01-30T06:59:24.314Z,68.10
2018-01-30T07:01:51.813Z,68.20
2018-01-30T07:04:19.313Z,68.40
2018-01-30T07:06:46.815Z,68.60
2018-01-30T07:09:14.314Z,67.90
2018-01-30T07:11:42.591Z,67.90
2018-01-30T07:14:10.869Z,67.70
2018-01-30T07:16:39.213Z,67.90
2018-01-30T07:19:06.815Z,67.90
2018-01-30T07:21:34.306Z,67.80
2018-01-30T07:24:01.828Z,67.70
2018-01-30T07:26:29.325Z,67.80
2018-01-30T07:28:57.577Z,68.00
2018-01-30T07:31:25.073Z,68.00
2018-01-30T07:33:53.369Z,67.90
2018-01-30T07:36:20.995Z,67.90
2018-01-30T07:38:48.501Z,67.70
2018-01-30T07:41:15.996Z,67.40
2018-01-30T07:43:43.496Z,66.80
2018-01-30T07:46:11.875Z,67.60
2018-01-30T07:48:39.320Z,67.60
2018-01-30T07:51:06.799Z,67.50
2018-01-30T07:53:35.086Z,67.80
2018-01-30T07:56:03.376Z,67.60
2018-01-30T07:58:30.889Z,67.60
2018-01-30T08:00:58.369Z,67.50
2018-01-30T08:03:25.890Z,67.10
2018-01-30T08:05:53.385Z,67.10
2018-01-30T08:08:20.968Z,67.20
2018-01-30T08:10:48.485Z,67.20
2018-01-30T08:13:16.036Z,66.60
2018-01-30T08:15:43.531Z,66.80
2018-01-30T08:18:13.199Z,67.00
2018-01-30T08:20:40.734Z,67.40
2018-01-30T08:23:08.439Z,67.70
2018-01-30T08:25:35.959Z,67.70
2018-01-30T08:28:04.429Z,67.50
2018-01-30T08:30:31.956Z,67.30
2018-01-30T08:32:59.456Z,67.10
2018-01-30T08:35:26.967Z,67.30
2018-01-30T08:37:54.525Z,67.20
2018-01-30T08:40:22.853Z,67.10
2018-01-30T08:42:50.356Z,67.10
2018-01-30T08:45:18.641Z,67.00
2018-01-30T08:47:46.920Z,66.40
2018-01-30T08:50:15.235Z,66.80
2018-01-30T08:52:42.760Z,66.80
2018-01-30T08:55:10.244Z,66.60
2018-01-30T08:57:37.766Z,66.80
2018-01-30T09:00:05.291Z,66.40
2018-01-30T09:02:32.795Z,66.10
2018-01-30T09:05:01.824Z,65.40
2018-01-30T09:07:30.093Z,65.60
2018-01-30T09:09:58.371Z,65.70
2018-01-30T09:12:26.645Z,65.80
2018-01-30T09:14:54.157Z,65.60
2018-01-30T09:17:21.644Z,65.20
2018-01-30T09:19:49.154Z,65.10
2018-01-30T09:22:17.426Z,64.80
2018-01-30T09:24:44.934Z,64.80
2018-01-30T09:27:12.457Z,65.30
2018-01-30T09:29:40.756Z,65.50
2018-01-30T09:32:09.039Z,64.70
2018-01-30T09:34:36.587Z,64.60
2018-01-30T09:37:04.209Z,64.50
2018-01-30T09:39:31.741Z,64.70
2018-01-30T09:41:59.267Z,64.60
2018-01-30T09:44:26.859Z,65.10
2018-01-30T09:46:54.362Z,64.80
2018-01-30T09:49:21.913Z,64.40
2018-01-30T09:51:49.402Z,64.00
2018-01-30T09:54:16.890Z,64.50
2018-01-30T09:56:44.498Z,64.10
2018-01-30T09:59:12.029Z,64.30
2018-01-30T10:01:40.324Z,64.30
2018-01-30T10:04:08.572Z,63.80
2018-01-30T10:06:36.116Z,63.80
2018-01-30T10:09:03.629Z,64.00
2018-01-30T10:11:31.147Z,64.00
2018-01-30T10:13:58.686Z,64.40
2018-01-30T10:16:26.186Z,64.50
2018-01-30T10:18:53.667Z,63.80
2018-01-30T10:21:21.944Z,64.60
2018-01-30T10:23:50.206Z,64.70
2018-01-30T10:26:17.735Z,64.00
2018-01-30T10:28:45.334Z,63.40
2018-01-30T10:31:12.865Z,63.80
2018-01-30T10:33:40.340Z,63.00
2018-01-30T10:36:08.785Z,63.20
2018-01-30T10:38:36.276Z,63.80
2018-01-30T10:41:03.806Z,63.70
2018-01-30T10:43:32.083Z,63.40
2018-01-30T10:46:00.364Z,63.60
2018-01-30T10:48:27.869Z,63.50
2018-01-30T10:50:55.392Z,63.80
2018-01-30T10:53:23.671Z,63.00
2018-01-30T10:55:51.969Z,62.70
2018-01-30T10:58:19.480Z,62.70
2018-01-30T11:00:46.981Z,63.00
2018-01-30T11:03:14.491Z,63.30
2018-01-30T11:05:41.986Z,63.60
2018-01-30T11:08:10.279Z,64.00
2018-01-30T11:10:38.680Z,63.40
2018-01-30T11:13:06.165Z,63.40
2018-01-30T11:15:33.688Z,63.20
2018-01-30T11:18:01.972Z,63.40
2018-01-30T11:20:30.270Z,63.00
2018-01-30T11:22:57.780Z,63.00
2018-01-30T11:25:26.174Z,63.20
2018-01-30T11:27:53.740Z,63.40
2018-01-30T11:30:21.293Z,63.00
2018-01-30T11:32:48.811Z,63.00
2018-01-30T11:35:16.322Z,62.30
2018-01-30T11:37:43.846Z,62.00
2018-01-30T11:40:11.336Z,62.00
2018-01-30T11:42:38.824Z,60.50
2018-01-30T11:45:06.344Z,59.60
2018-01-30T11:47:33.847Z,60.50
2018-01-30T11:50:01.344Z,59.70
2018-01-30T11:52:28.878Z,59.70
2018-01-30T11:54:56.376Z,59.90
2018-01-30T11:57:23.897Z,59.80
2018-01-30T11:59:51.384Z,59.60
2018-01-30T12:02:19.661Z,59.20
2018-01-30T12:04:47.916Z,59.20
2018-01-30T12:07:15.443Z,59.10
2018-01-30T12:09:42.949Z,59.40
2018-01-30T12:12:11.235Z,60.50
2018-01-30T12:14:38.732Z,59.80
2018-01-30T12:17:06.250Z,59.30
2018-01-30T12:19:33.761Z,59.10
2018-01-30T12:22:01.258Z,58.80
2018-01-30T12:24:28.740Z,58.60
2018-01-30T12:26:56.250Z,58.60
2018-01-30T12:29:23.790Z,58.60
2018-01-30T12:31:52.047Z,60.10
2018-01-30T12:34:19.940Z,60.00
2018-01-30T12:36:47.443Z,59.90
2018-01-30T12:39:14.941Z,59.40
2018-01-30T12:41:42.485Z,59.00
2018-01-30T12:44:09.995Z,59.00
2018-01-30T12:46:38.297Z,59.00
2018-01-30T12:49:05.795Z,59.00
2018-01-30T12:51:33.290Z,58.70
2018-01-30T12:54:00.803Z,58.40
2018-01-30T12:56:29.044Z,59.30
2018-01-30T12:58:56.557Z,58.80
2018-01-30T13:01:24.056Z,59.00
2018-01-30T13:03:51.544Z,58.40
2018-01-30T13:06:19.857Z,58.70
2018-01-30T13:08:47.456Z,58.70
2018-01-30T13:11:14.944Z,58.70
2018-01-30T13:13:43.216Z,59.10
2018-01-30T13:16:11.843Z,59.10
2018-01-30T13:18:39.346Z,59.20
2018-01-30T13:21:06.847Z,59.30
2018-01-30T13:23:34.373Z,59.60
2018-01-30T13:26:01.878Z,59.20
2018-01-30T13:28:30.138Z,58.40
2018-01-30T13:30:57.625Z,58.40
2018-01-30T13:33:25.928Z,58.00
2018-01-30T13:35:53.439Z,58.00
2018-01-30T13:38:20.949Z,58.70
2018-01-30T13:40:48.482Z,58.40
2018-01-30T13:43:16.755Z,58.50
2018-01-30T13:45:44.272Z,58.40
2018-01-30T13:48:11.812Z,58.40
2018-01-30T13:50:39.298Z,57.90
2018-01-30T13:53:06.827Z,57.70
2018-01-30T13:55:35.102Z,58.60
2018-01-30T13:58:03.382Z,58.70
2018-01-30T14:00:31.640Z,58.60
2018-01-30T14:02:59.152Z,58.60
2018-01-30T14:05:26.685Z,58.90
2018-01-30T14:07:54.928Z,58.70
2018-01-30T14:10:22.436Z,58.60
2018-01-30T14:12:51.680Z,59.20
2018-01-30T14:15:19.207Z,59.20
2018-01-30T14:17:46.723Z,58.50
2018-01-30T14:20:14.268Z,58.60
2018-01-30T14:22:41.776Z,58.70
2018-01-30T14:25:10.090Z,58.80
2018-01-30T14:27:37.581Z,58.80
2018-01-30T14:30:05.088Z,58.80
2018-01-30T14:32:32.594Z,58.50
2018-01-30T14:35:00.104Z,58.60
2018-01-30T14:37:27.612Z,58.50
2018-01-30T14:39:55.230Z,58.40
2018-01-30T14:42:22.765Z,58.20
2018-01-30T14:44:50.487Z,58.10
2018-01-30T14:47:18.775Z,57.90
2018-01-30T14:49:46.293Z,57.80
2018-01-30T14:52:13.826Z,58.30
2018-01-30T14:54:42.303Z,58.20
2018-01-30T14:57:09.822Z,58.20
2018-01-30T14:59:37.412Z,58.00
2018-01-30T15:02:05.669Z,58.30
2018-01-30T15:04:33.172Z,58.20
2018-01-30T15:07:00.673Z,58.20
2018-01-30T15:09:28.167Z,58.00
2018-01-30T15:11:55.659Z,58.10
2018-01-30T15:14:23.144Z,58.40
2018-01-30T15:16:50.671Z,58.40
2018-01-30T15:19:18.998Z,58.00
2018-01-30T15:21:46.505Z,58.10
2018-01-30T15:24:14.820Z,58.60
2018-01-30T15:26:42.300Z,58.50
2018-01-30T15:29:09.777Z,58.60
2018-01-30T15:31:37.269Z,58.50
2018-01-30T15:34:05.593Z,58.70
2018-01-30T15:36:33.109Z,58.70
2018-01-30T15:39:00.654Z,58.60
2018-01-30T15:41:28.120Z,58.90
2018-01-30T15:43:55.605Z,59.10
2018-01-30T15:46:23.875Z,59.00
2018-01-30T15:48:51.400Z,58.50
2018-01-30T15:51:18.897Z,58.30
2018-01-30T15:53:46.377Z,58.40
2018-01-30T15:56:14.650Z,59.00
2018-01-30T15:58:42.128Z,59.00
2018-01-30T16:01:10.405Z,59.60
2018-01-30T16:03:39.481Z,59.90
2018-01-30T16:06:07.010Z,59.90
2018-01-30T16:08:34.493Z,59.90
2018-01-30T16:11:02.001Z,60.00
2018-01-30T16:13:30.257Z,60.10
2018-01-30T16:15:57.787Z,60.10
2018-01-30T16:18:25.284Z,60.50
2018-01-30T16:20:53.662Z,60.60
2018-01-30T16:23:21.615Z,60.60
2018-01-30T16:25:49.127Z,61.00
2018-01-30T16:28:17.408Z,61.20
2018-01-30T16:30:45.714Z,61.40
2018-01-30T16:33:13.209Z,61.40
2018-01-30T16:35:40.729Z,62.00
2018-01-30T16:38:08.246Z,61.60
2018-01-30T16:40:37.914Z,61.70
2018-01-30T16:43:05.454Z,61.60
2018-01-30T16:45:33.834Z,61.70
2018-01-30T16:48:02.100Z,62.00
2018-01-30T16:50:30.403Z,62.00
2018-01-30T16:52:58.685Z,61.90
2018-01-30T16:55:26.176Z,61.90
2018-01-30T16:57:53.676Z,61.90
2018-01-30T17:00:21.234Z,61.90
2018-01-30T17:02:48.795Z,62.10
2018-01-30T17:05:16.281Z,62.70
2018-01-30T17:07:43.864Z,62.60
2018-01-30T17:10:12.133Z,62.40
2018-01-30T17:12:40.367Z,62.70
2018-01-30T17:15:07.887Z,62.50
2018-01-30T17:17:36.161Z,62.40
2018-01-30T17:20:04.448Z,62.70
2018-01-30T17:22:33.500Z,62.70
2018-01-30T17:25:01.034Z,62.70
2018-01-30T17:27:29.388Z,63.00
2018-01-30T17:29:56.905Z,63.00
2018-01-30T17:32:24.409Z,63.30
2018-01-30T17:34:52.668Z,64.00
2018-01-30T17:37:20.174Z,64.00
2018-01-30T17:39:47.762Z,64.10
2018-01-30T17:42:15.288Z,64.40
2018-01-30T17:44:43.543Z,64.20
2018-01-30T17:47:11.067Z,64.20
2018-01-30T17:49:38.662Z,65.10
2018-01-30T17:52:06.164Z,64.80
2018-01-30T17:54:33.725Z,64.60
2018-01-30T17:57:02.028Z,64.60
2018-01-30T17:59:29.534Z,64.60
2018-01-30T18:01:57.052Z,64.70
2018-01-30T18:04:24.618Z,64.60
2018-01-30T18:06:52.240Z,65.00
2018-01-30T18:09:19.753Z,65.20
2018-01-30T18:11:47.377Z,65.50
2018-01-30T18:14:14.917Z,65.80
2018-01-30T18:16:42.473Z,66.50
2018-01-30T18:19:10.037Z,66.70
2018-01-30T18:21:37.562Z,66.60
2018-01-30T18:24:05.074Z,66.20
2018-01-30T18:26:32.602Z,66.30
2018-01-30T18:29:00.098Z,66.30
2018-01-30T18:31:27.601Z,66.40
2018-01-30T18:33:55.881Z,66.80
2018-01-30T18:36:24.182Z,66.90
2018-01-30T18:38:51.746Z,66.90
2018-01-30T18:41:19.293Z,67.70
2018-01-30T18:43:47.571Z,68.00
2018-01-30T18:46:15.886Z,67.40
2018-01-30T18:48:43.429Z,67.40
2018-01-30T18:51:10.926Z,67.40
2018-01-30T18:53:38.570Z,67.40
2018-01-30T18:56:06.137Z,67.20
2018-01-30T18:58:33.673Z,67.30
2018-01-30T19:01:01.289Z,67.60
2018-01-30T19:03:28.826Z,67.50
2018-01-30T19:05:56.423Z,67.60
2018-01-30T19:08:24.061Z,67.80
2018-01-30T19:10:51.720Z,68.00
2018-01-30T19:13:19.854Z,68.10
2018-01-30T19:15:49.487Z,68.00
2018-01-30T19:18:17.118Z,68.00
2018-01-30T19:20:44.639Z,68.10
2018-01-30T19:23:12.143Z,68.60
2018-01-30T19:25:39.691Z,69.00
2018-01-30T19:28:07.216Z,68.60
2018-01-30T19:30:34.797Z,68.90
2018-01-30T19:33:02.467Z,69.10
2018-01-30T19:35:29.996Z,68.60
2018-01-30T19:37:58.341Z,68.30
2018-01-30T19:40:25.895Z,68.30
2018-01-30T19:42:53.456Z,68.50
2018-01-30T19:45:20.966Z,68.80
2018-01-30T19:47:48.508Z,68.40
2018-01-30T19:50:16.038Z,68.50
2018-01-30T19:52:43.558Z,68.30
2018-01-30T19:55:11.835Z,68.70
2018-01-30T19:57:40.131Z,68.10
2018-01-30T20:00:09.334Z,68.30
2018-01-30T20:02:37.626Z,68.00
2018-01-30T20:05:05.178Z,68.00
2018-01-30T20:07:33.535Z,67.90
2018-01-30T20:10:01.118Z,67.90
2018-01-30T20:12:29.646Z,68.30
2018-01-30T20:14:57.942Z,68.30
2018-01-30T20:17:31.201Z,68.10
2018-01-30T20:19:58.797Z,68.00
2018-01-30T20:22:26.282Z,68.30
2018-01-30T20:24:53.897Z,68.10
2018-01-30T20:27:21.452Z,68.10
2018-01-30T20:29:49.001Z,68.10
2018-01-30T20:32:17.273Z,68.50
2018-01-30T20:34:44.796Z,68.50
2018-01-30T20:37:18.020Z,68.60
2018-01-30T20:39:45.566Z,68.70
2018-01-30T20:42:13.205Z,68.80
2018-01-30T20:44:41.450Z,68.60
2018-01-30T20:47:09.813Z,68.50
2018-01-30T20:49:37.359Z,68.80
2018-01-30T20:52:04.873Z,69.10
2018-01-30T20:54:32.444Z,69.50
2018-01-30T20:56:59.993Z,69.70
2018-01-30T20:59:28.305Z,69.40
2018-01-30T21:01:55.809Z,69.30
2018-01-30T21:04:24.086Z,69.40
2018-01-30T21:06:51.619Z,69.40
2018-01-30T21:09:20.384Z,69.30
2018-01-30T21:11:47.896Z,69.40
2018-01-30T21:14:15.425Z,69.80
2018-01-30T21:16:42.927Z,69.90
2018-01-30T21:19:10.429Z,70.10
2018-01-30T21:21:37.984Z,70.10
2018-01-30T21:24:06.270Z,70.10
2018-01-30T21:26:34.521Z,70.40
2018-01-30T21:29:02.022Z,70.40
2018-01-30T21:31:29.614Z,70.30
2018-01-30T21:33:57.223Z,70.40
2018-01-30T21:36:24.757Z,70.40
2018-01-30T21:38:52.342Z,70.60
2018-01-30T21:41:19.893Z,70.40
2018-01-30T21:43:47.381Z,70.50
2018-01-30T21:46:15.730Z,70.00
2018-01-30T21:48:43.290Z,70.00
2018-01-30T21:51:10.954Z,69.90
2018-01-30T21:53:38.562Z,70.10
2018-01-30T21:56:06.193Z,69.80
2018-01-30T21:58:33.712Z,70.10
2018-01-30T22:01:02.107Z,70.40
2018-01-30T22:03:30.346Z,70.40
2018-01-30T22:05:57.883Z,70.80
2018-01-30T22:08:25.405Z,70.60
2018-01-30T22:10:53.754Z,71.30
2018-01-30T22:13:21.309Z,71.30
2018-01-30T22:15:48.851Z,71.60
2018-01-30T22:18:16.362Z,71.10
2018-01-30T22:20:44.682Z,71.50
2018-01-30T22:23:12.188Z,71.30
2018-01-30T22:25:39.684Z,71.50
2018-01-30T22:28:07.958Z,71.00
2018-01-30T22:30:36.317Z,71.10
2018-01-30T22:33:03.977Z,71.00
2018-01-30T22:35:31.480Z,71.00
2018-01-30T22:37:58.980Z,70.90
2018-01-30T22:40:26.541Z,70.60
2018-01-30T22:42:54.064Z,70.30
2018-01-30T22:45:22.374Z,70.90
